Time;durP1;ratioP1;P1;durP2;ratioP2;P2;SDS_P1;SDS_P2;PMS_P1;PMS_P2;Temp;Humidity;BMP_temperature;BMP_pressure;BME280_temperature;BME280_humidity;BME280_pressure;Samples;Min_cycle;Max_cycle;Signal;HPM_P1;HPM_P2
2022/09/27 00:00:42;;;;;;;5.60;1.17;;;10.30;99.90;;;;;;5050878;28;20032;-65
2022/09/27 00:03:09;;;;;;;3.60;0.90;;;10.30;99.90;;;;;;5051535;28;20045;-64
2022/09/27 00:05:34;;;;;;;3.58;1.00;;;10.30;99.90;;;;;;5051358;28;20041;-65
2022/09/27 00:08:00;;;;;;;4.50;1.30;;;10.20;99.90;;;;;;5049873;28;20720;-65
2022/09/27 00:10:26;;;;;;;6.85;1.10;;;10.20;99.90;;;;;;5051076;28;20048;-64
2022/09/27 00:12:52;;;;;;;8.25;1.52;;;10.20;99.90;;;;;;5050254;28;20481;-64
2022/09/27 00:15:18;;;;;;;6.97;1.40;;;10.20;99.90;;;;;;5050896;28;20367;-65
2022/09/27 00:17:43;;;;;;;3.15;1.00;;;10.20;99.90;;;;;;5049931;28;20408;-64
2022/09/27 00:20:09;;;;;;;3.30;0.80;;;10.20;99.90;;;;;;5049766;28;20115;-64
2022/09/27 00:22:35;;;;;;;4.85;1.00;;;10.20;99.90;;;;;;5050601;28;20036;-63
2022/09/27 00:25:04;;;;;;;4.90;0.90;;;10.30;99.90;;;;;;5050692;28;20068;-63
2022/09/27 00:27:30;;;;;;;6.15;1.10;;;10.20;99.90;;;;;;5051034;28;20418;-65
2022/09/27 00:29:55;;;;;;;6.93;1.08;;;10.30;99.90;;;;;;5051242;28;20123;-63
2022/09/27 00:32:21;;;;;;;5.03;0.90;;;10.20;99.90;;;;;;5050733;28;20104;-63
2022/09/27 00:34:46;;;;;;;4.38;0.88;;;10.20;99.90;;;;;;5050898;28;20080;-64
2022/09/27 00:37:12;;;;;;;3.90;0.73;;;10.20;99.90;;;;;;5050221;28;20049;-64
2022/09/27 00:39:38;;;;;;;2.45;0.82;;;10.20;99.90;;;;;;5050846;28;20378;-63
2022/09/27 00:42:05;;;;;;;2.92;0.70;;;10.20;99.90;;;;;;5050271;28;20099;-63
2022/09/27 00:44:32;;;;;;;2.83;0.70;;;10.10;99.90;;;;;;5054060;28;20043;-64
2022/09/27 00:47:00;;;;;;;3.72;0.80;;;10.10;99.90;;;;;;5054105;28;20056;-63
2022/09/27 00:49:33;;;;;;;5.25;1.10;;;10.10;99.90;;;;;;5054429;28;20117;-64
2022/09/27 00:52:04;;;;;;;4.78;1.05;;;10.10;99.90;;;;;;5054114;28;20037;-63
2022/09/27 00:54:33;;;;;;;4.50;0.93;;;10.10;99.90;;;;;;5054581;28;20037;-63
2022/09/27 00:56:59;;;;;;;4.18;0.90;;;10.10;99.90;;;;;;5054366;28;20079;-64
2022/09/27 00:59:44;;;;;;;3.85;1.10;;;10.00;99.90;;;;;;5053365;28;20073;-63
2022/09/27 01:02:11;;;;;;;5.68;1.15;;;10.00;99.90;;;;;;5054374;28;20098;-64
2022/09/27 01:04:38;;;;;;;2.97;0.80;;;10.00;99.90;;;;;;5054445;28;20171;-64
2022/09/27 01:07:04;;;;;;;4.93;1.05;;;10.00;99.90;;;;;;5053848;28;20116;-64
2022/09/27 01:09:31;;;;;;;8.82;1.50;;;9.90;99.90;;;;;;5054368;28;20043;-63
2022/09/27 01:12:19;;;;;;;7.40;1.10;;;10.00;99.90;;;;;;5053883;28;20045;-64
2022/09/27 01:15:06;;;;;;;2.85;0.90;;;9.90;99.90;;;;;;5054152;28;20374;-63
2022/09/27 01:17:43;;;;;;;8.20;1.70;;;10.00;99.90;;;;;;5046154;28;20076;-63
2022/09/27 01:20:30;;;;;;;6.53;1.20;;;9.90;99.90;;;;;;5053855;28;20375;-64
2022/09/27 01:23:11;;;;;;;4.82;1.20;;;9.90;99.90;;;;;;5053671;28;20103;-64
2022/09/27 01:26:06;;;;;;;6.90;1.30;;;9.90;99.90;;;;;;5053428;28;20146;-63
2022/09/27 01:29:31;;;;;;;3.88;0.80;;;9.90;99.90;;;;;;5052702;28;20576;-64
2022/09/27 01:32:50;;;;;;;4.93;1.43;;;9.90;99.90;;;;;;5014369;28;20049;-63
2022/09/27 01:35:20;;;;;;;5.45;1.13;;;9.90;99.90;;;;;;4972442;28;20492;-63
2022/09/27 01:38:02;;;;;;;5.00;1.20;;;9.90;99.90;;;;;;5036337;28;20049;-63
2022/09/27 01:41:12;;;;;;;7.95;1.60;;;9.90;99.90;;;;;;5053315;28;20033;-64
2022/09/27 01:43:52;;;;;;;6.85;1.33;;;9.90;99.90;;;;;;5053634;28;20577;-63
2022/09/27 01:46:25;;;;;;;7.97;1.30;;;10.00;99.90;;;;;;5060197;28;20147;-63
2022/09/27 01:48:52;;;;;;;7.40;1.10;;;9.90;99.90;;;;;;5053580;28;20108;-63
2022/09/27 01:51:33;;;;;;;6.82;1.10;;;10.00;99.90;;;;;;5053027;28;20426;-64
2022/09/27 01:54:02;;;;;;;8.15;1.38;;;9.90;99.90;;;;;;5052949;28;20045;-64
2022/09/27 01:56:46;;;;;;;5.97;1.08;;;9.90;99.90;;;;;;5053098;28;20037;-64
2022/09/27 01:59:28;;;;;;;6.78;1.17;;;9.90;99.90;;;;;;5053025;28;20033;-64
2022/09/27 02:01:58;;;;;;;4.30;1.33;;;9.90;99.90;;;;;;5053072;28;20033;-63
2022/09/27 02:04:29;;;;;;;4.82;1.13;;;9.90;99.90;;;;;;5053183;28;20052;-64
2022/09/27 02:07:02;;;;;;;3.67;0.93;;;9.90;99.90;;;;;;5052580;28;20434;-64
2022/09/27 02:10:03;;;;;;;4.68;1.00;;;9.90;99.90;;;;;;5051940;28;20045;-64
2022/09/27 02:12:34;;;;;;;1.67;0.50;;;9.90;99.90;;;;;;5049149;28;20063;-64
2022/09/27 02:15:09;;;;;;;3.35;1.00;;;9.80;99.90;;;;;;5052915;28;20132;-66
2022/09/27 02:18:09;;;;;;;3.38;0.82;;;9.80;99.90;;;;;;5052981;28;20496;-64
2022/09/27 02:20:42;;;;;;;3.90;1.08;;;9.80;99.90;;;;;;5041562;28;20033;-64
2022/09/27 02:23:22;;;;;;;4.80;0.95;;;9.80;99.90;;;;;;5052941;28;20048;-64
2022/09/27 02:26:16;;;;;;;2.58;0.65;;;9.80;99.90;;;;;;5052627;28;20041;-64
2022/09/27 02:28:48;;;;;;;3.58;0.57;;;9.80;99.90;;;;;;5047950;28;20451;-65
2022/09/27 02:31:14;;;;;;;4.05;0.98;;;9.80;99.90;;;;;;5052633;28;20028;-65
2022/09/27 02:33:45;;;;;;;3.53;0.60;;;9.80;99.90;;;;;;5052714;28;20492;-65
2022/09/27 02:36:11;;;;;;;6.57;0.98;;;9.80;99.90;;;;;;5052604;28;20036;-64
2022/09/27 02:38:37;;;;;;;4.40;0.95;;;9.80;99.90;;;;;;5052223;28;20045;-65
2022/09/27 02:41:03;;;;;;;2.50;0.70;;;9.80;99.90;;;;;;5051605;28;20033;-64
2022/09/27 02:43:31;;;;;;;5.05;0.88;;;9.80;99.90;;;;;;5052098;28;20210;-64
2022/09/27 02:46:30;;;;;;;3.65;0.90;;;9.80;99.90;;;;;;5051532;28;20048;-64
2022/09/27 02:49:25;;;;;;;4.82;1.02;;;9.80;99.90;;;;;;5051903;28;20064;-65
2022/09/27 02:52:05;;;;;;;;;;;9.80;99.90;;;;;;5052571;28;20101;-65
2022/09/27 02:54:40;;;;;;;2.65;0.60;;;9.80;99.90;;;;;;5067913;28;20329;-65
2022/09/27 02:57:24;;;;;;;3.40;0.82;;;9.80;99.90;;;;;;5051946;28;20465;-65
2022/09/27 03:00:04;;;;;;;2.67;0.70;;;9.80;99.90;;;;;;5038427;28;20032;-65
2022/09/27 03:03:01;;;;;;;3.42;0.80;;;9.80;99.90;;;;;;5052339;28;20033;-65
2022/09/27 03:05:32;;;;;;;3.45;0.77;;;9.80;99.90;;;;;;5041850;28;20454;-65
2022/09/27 03:07:58;;;;;;;4.28;0.85;;;9.80;99.90;;;;;;5050036;28;20064;-65
2022/09/27 03:10:29;;;;;;;3.45;0.75;;;9.80;99.90;;;;;;5051575;28;20029;-65
2022/09/27 03:12:56;;;;;;;4.32;0.90;;;9.80;99.90;;;;;;5051567;28;20655;-65
2022/09/27 03:15:21;;;;;;;4.35;0.70;;;9.70;99.90;;;;;;5051819;28;20037;-64
2022/09/27 03:17:47;;;;;;;2.97;0.52;;;9.70;99.90;;;;;;5052005;28;20040;-65
2022/09/27 03:20:12;;;;;;;2.75;0.60;;;9.80;99.90;;;;;;5051444;28;20044;-66
2022/09/27 03:22:39;;;;;;;1.95;0.60;;;9.70;99.90;;;;;;5051608;28;20036;-65
2022/09/27 03:25:05;;;;;;;4.10;0.85;;;9.70;99.90;;;;;;5051654;28;20501;-65
2022/09/27 03:27:31;;;;;;;3.45;0.65;;;9.70;99.90;;;;;;5051786;28;20040;-65
2022/09/27 03:29:58;;;;;;;4.18;0.73;;;9.70;99.90;;;;;;5051806;28;20041;-65
2022/09/27 03:32:24;;;;;;;2.78;0.60;;;9.70;99.90;;;;;;5049986;28;20078;-66
2022/09/27 03:34:49;;;;;;;1.13;0.50;;;9.70;99.90;;;;;;5051173;28;20129;-65
2022/09/27 03:37:15;;;;;;;5.25;0.82;;;9.70;99.90;;;;;;5050605;28;20327;-65
2022/09/27 03:39:41;;;;;;;1.70;0.70;;;9.70;99.90;;;;;;5051788;28;20040;-65
2022/09/27 03:42:06;;;;;;;4.07;0.82;;;9.70;99.90;;;;;;5051180;28;20056;-65
2022/09/27 03:44:32;;;;;;;1.63;0.60;;;9.60;99.90;;;;;;5051376;28;20163;-65
2022/09/27 03:46:58;;;;;;;2.55;0.70;;;9.60;99.90;;;;;;5051516;28;20072;-65
2022/09/27 03:49:24;;;;;;;3.80;0.52;;;9.60;99.90;;;;;;5050456;28;20331;-66
2022/09/27 03:51:49;;;;;;;3.65;0.65;;;9.60;99.90;;;;;;5051317;28;20106;-65
2022/09/27 03:54:15;;;;;;;3.38;0.75;;;9.60;99.90;;;;;;5051370;28;20083;-65
2022/09/27 03:56:40;;;;;;;5.20;1.13;;;9.60;99.90;;;;;;5051503;28;20525;-66
2022/09/27 03:59:06;;;;;;;2.97;1.00;;;9.50;99.90;;;;;;5050555;28;20040;-65
2022/09/27 04:01:34;;;;;;;3.28;0.77;;;9.50;99.90;;;;;;5049944;28;20036;-65
2022/09/27 04:03:59;;;;;;;4.30;0.85;;;9.50;99.90;;;;;;5051470;28;20041;-65
2022/09/27 04:06:25;;;;;;;3.80;0.90;;;9.50;99.90;;;;;;5051159;28;20477;-66
2022/09/27 04:08:53;;;;;;;3.53;0.80;;;9.40;99.90;;;;;;5050100;28;20084;-65
2022/09/27 04:11:18;;;;;;;2.83;0.80;;;9.40;99.90;;;;;;5050048;28;20049;-66
2022/09/27 04:13:45;;;;;;;3.50;0.80;;;9.40;99.90;;;;;;5051512;28;20044;-64
2022/09/27 04:16:10;;;;;;;2.78;0.70;;;9.40;99.90;;;;;;5051303;28;20116;-66
2022/09/27 04:18:36;;;;;;;4.35;0.80;;;9.40;99.90;;;;;;5052070;28;20120;-65
2022/09/27 04:21:02;;;;;;;3.45;0.95;;;9.40;99.90;;;;;;5054304;28;20029;-65
2022/09/27 04:23:27;;;;;;;4.95;1.10;;;9.30;99.90;;;;;;5054244;28;20041;-64
2022/09/27 04:25:53;;;;;;;3.28;1.00;;;9.30;99.90;;;;;;5055160;28;20315;-64
2022/09/27 04:28:19;;;;;;;5.47;1.10;;;9.30;99.90;;;;;;5055005;28;20041;-65
2022/09/27 04:30:45;;;;;;;4.30;0.82;;;9.30;99.90;;;;;;5054596;28;20085;-64
2022/09/27 04:33:11;;;;;;;5.57;1.35;;;9.20;99.90;;;;;;5055086;28;20073;-65
2022/09/27 04:38:22;;;;;;;5.18;0.82;;;9.30;99.90;;;;;;5054424;28;20115;-65
2022/09/27 04:40:49;;;;;;;4.88;1.00;;;9.30;99.90;;;;;;5052804;28;20362;-64
2022/09/27 04:43:15;;;;;;;6.43;1.15;;;9.20;99.90;;;;;;5054109;28;20264;-64
2022/09/27 04:45:42;;;;;;;5.03;1.35;;;9.20;99.90;;;;;;5053076;28;20056;-65
2022/09/27 04:48:08;;;;;;;6.38;1.10;;;9.20;99.90;;;;;;5052329;28;20041;-65
2022/09/27 04:50:34;;;;;;;5.30;1.10;;;9.20;99.90;;;;;;5052495;28;20419;-65
2022/09/27 04:53:00;;;;;;;7.43;1.42;;;9.20;99.90;;;;;;5053759;28;20477;-65
2022/09/27 04:55:26;;;;;;;6.13;1.33;;;9.20;99.90;;;;;;5053901;28;20050;-66
2022/09/27 04:57:52;;;;;;;7.68;1.30;;;9.20;99.90;;;;;;5053426;28;20041;-65
2022/09/27 05:00:18;;;;;;;7.88;1.30;;;9.20;99.90;;;;;;5053461;28;20128;-65
2022/09/27 05:02:47;;;;;;;7.72;1.38;;;9.20;99.90;;;;;;5053595;28;20048;-66
2022/09/27 05:05:13;;;;;;;13.55;2.35;;;9.10;99.90;;;;;;5051917;28;20370;-65
2022/09/27 05:07:38;;;;;;;10.73;1.80;;;9.10;99.90;;;;;;5053386;28;20056;-64
2022/09/27 05:10:05;;;;;;;6.00;1.30;;;9.20;99.90;;;;;;5053315;28;20029;-64
2022/09/27 05:12:31;;;;;;;15.30;3.15;;;9.10;99.90;;;;;;5053948;28;20044;-66
2022/09/27 05:14:57;;;;;;;24.17;4.25;;;9.10;99.90;;;;;;5051948;28;20040;-66
2022/09/27 05:17:22;;;;;;;19.33;3.40;;;9.10;99.90;;;;;;5067325;28;20124;-66
2022/09/27 05:19:49;;;;;;;13.60;2.25;;;9.10;99.90;;;;;;5052556;28;20029;-65
2022/09/27 05:22:15;;;;;;;7.32;1.55;;;9.10;99.90;;;;;;5051929;28;20040;-66
2022/09/27 05:24:41;;;;;;;5.15;1.33;;;9.00;99.90;;;;;;5053812;28;20037;-65
2022/09/27 05:27:11;;;;;;;6.90;1.20;;;9.00;99.90;;;;;;5053204;28;20322;-65
2022/09/27 05:29:36;;;;;;;7.70;1.27;;;9.00;99.90;;;;;;5053025;28;20048;-66
2022/09/27 05:32:02;;;;;;;5.28;1.10;;;9.00;99.90;;;;;;5053562;28;20051;-66
2022/09/27 05:34:28;;;;;;;5.68;1.42;;;9.00;99.90;;;;;;5054008;28;20060;-65
2022/09/27 05:36:53;;;;;;;6.90;1.33;;;9.00;99.90;;;;;;5053175;28;20045;-66
2022/09/27 05:39:19;;;;;;;4.28;1.20;;;9.00;99.90;;;;;;5053452;28;20462;-66
2022/09/27 05:41:47;;;;;;;5.40;1.08;;;9.00;99.90;;;;;;5053127;28;20476;-66
2022/09/27 05:44:13;;;;;;;7.60;1.40;;;9.00;99.90;;;;;;5052718;28;20060;-66
2022/09/27 05:46:39;;;;;;;4.68;1.30;;;9.00;99.90;;;;;;5052096;28;20056;-65
2022/09/27 05:49:05;;;;;;;11.40;2.42;;;9.00;99.90;;;;;;5052903;28;20373;-66
2022/09/27 05:51:31;;;;;;;12.82;2.92;;;9.00;99.90;;;;;;5052732;28;20425;-66
2022/09/27 05:53:56;;;;;;;8.10;1.95;;;9.00;99.90;;;;;;5053307;28;20051;-66
2022/09/27 05:56:22;;;;;;;7.93;2.10;;;9.00;99.90;;;;;;5053092;28;20111;-65
2022/09/27 05:58:47;;;;;;;5.85;1.85;;;9.00;99.90;;;;;;5053359;28;20043;-65
2022/09/27 06:01:14;;;;;;;9.55;2.22;;;9.00;99.90;;;;;;5051569;28;20464;-66
2022/09/27 06:03:39;;;;;;;9.80;2.88;;;9.00;99.90;;;;;;5051968;28;20103;-66
2022/09/27 06:06:06;;;;;;;10.32;2.55;;;9.00;99.90;;;;;;5051553;28;20049;-65
2022/09/27 06:08:35;;;;;;;19.27;3.67;;;9.10;99.90;;;;;;5052775;28;20058;-65
2022/09/27 06:11:03;;;;;;;15.38;2.80;;;9.30;99.90;;;;;;5052094;28;20068;-66
2022/09/27 06:13:29;;;;;;;8.07;2.35;;;9.60;99.90;;;;;;5051938;28;20040;-66
2022/09/27 06:15:55;;;;;;;7.65;2.17;;;9.70;99.90;;;;;;5052670;28;20033;-66
2022/09/27 06:18:20;;;;;;;9.23;2.40;;;9.90;99.90;;;;;;5052928;28;20035;-66
2022/09/27 06:20:46;;;;;;;10.38;2.60;;;10.20;99.90;;;;;;5052549;28;20033;-65
2022/09/27 06:23:14;;;;;;;11.73;2.38;;;10.60;99.90;;;;;;5052701;28;20071;-69
2022/09/27 06:25:41;;;;;;;10.68;2.83;;;11.20;99.90;;;;;;5052728;28;20434;-66
2022/09/27 06:28:08;;;;;;;6.38;1.90;;;11.40;99.90;;;;;;5052915;28;20076;-66
2022/09/27 06:30:40;;;;;;;6.60;2.13;;;11.50;99.90;;;;;;5052519;28;20037;-66
2022/09/27 06:33:09;;;;;;;11.15;2.08;;;11.20;99.90;;;;;;5052618;28;20478;-66
2022/09/27 06:35:35;;;;;;;9.05;2.25;;;11.00;99.90;;;;;;5051139;28;20458;-66
2022/09/27 06:38:07;;;;;;;8.68;2.85;;;10.90;99.90;;;;;;5050846;28;20093;-65
2022/09/27 06:40:34;;;;;;;10.60;2.80;;;10.80;99.90;;;;;;5051959;28;20129;-66
2022/09/27 06:43:04;;;;;;;17.20;4.85;;;10.70;99.90;;;;;;5052601;28;20052;-66
2022/09/27 06:45:32;;;;;;;19.63;5.07;;;10.70;99.90;;;;;;5052357;28;20149;-65
2022/09/27 06:48:01;;;;;;;11.90;3.03;;;10.80;99.90;;;;;;5037975;28;20051;-65
2022/09/27 06:50:31;;;;;;;13.25;2.58;;;10.90;99.90;;;;;;5050881;28;20041;-65
2022/09/27 06:52:57;;;;;;;17.33;3.88;;;11.00;99.90;;;;;;5052538;28;20148;-66
2022/09/27 06:55:23;;;;;;;13.20;2.67;;;11.10;99.90;;;;;;5052291;28;20120;-64
2022/09/27 07:00:37;;;;;;;16.60;2.63;;;11.30;99.90;;;;;;5052143;28;20048;-66
2022/09/27 07:03:02;;;;;;;9.30;1.50;;;11.30;99.90;;;;;;5050948;28;20132;-66
2022/09/27 07:05:29;;;;;;;7.15;1.40;;;11.40;99.90;;;;;;5051958;28;20049;-66
2022/09/27 07:07:58;;;;;;;6.13;1.73;;;11.40;99.90;;;;;;5051970;28;20060;-66
2022/09/27 07:10:26;;;;;;;7.13;1.90;;;11.50;99.90;;;;;;5051573;28;20469;-66
2022/09/27 07:12:52;;;;;;;8.75;1.80;;;11.40;99.90;;;;;;5051823;28;20041;-64
2022/09/27 07:15:20;;;;;;;8.95;2.10;;;11.30;99.90;;;;;;5050886;28;20052;-63
2022/09/27 07:17:46;;;;;;;7.38;2.08;;;11.30;99.90;;;;;;5051983;28;20045;-64
2022/09/27 07:20:13;;;;;;;7.25;2.20;;;11.20;99.90;;;;;;5050106;28;20112;-65
2022/09/27 07:22:41;;;;;;;5.95;2.08;;;11.30;99.90;;;;;;5051961;28;20048;-63
2022/09/27 07:25:07;;;;;;;8.00;2.30;;;11.40;99.90;;;;;;5051941;28;20105;-65
2022/09/27 07:27:33;;;;;;;8.20;1.48;;;11.50;99.90;;;;;;5051604;28;20644;-64
2022/09/27 07:29:59;;;;;;;5.47;1.50;;;11.60;99.90;;;;;;5051577;28;20045;-65
2022/09/27 07:32:25;;;;;;;3.55;0.80;;;11.80;99.90;;;;;;5050453;28;20367;-64
2022/09/27 07:34:50;;;;;;;4.72;1.20;;;11.90;99.90;;;;;;5051762;28;20072;-64
2022/09/27 07:37:16;;;;;;;2.15;0.90;;;12.00;99.90;;;;;;5050675;28;20053;-65
2022/09/27 07:39:43;;;;;;;3.38;0.77;;;12.10;99.90;;;;;;5051363;28;20114;-64
2022/09/27 07:42:09;;;;;;;2.10;0.57;;;12.10;99.90;;;;;;5051569;28;20405;-65
2022/09/27 07:44:35;;;;;;;4.00;0.70;;;12.10;99.90;;;;;;5051723;28;20041;-65
2022/09/27 07:47:00;;;;;;;1.50;0.60;;;12.20;99.90;;;;;;5050268;28;20782;-64
2022/09/27 07:49:26;;;;;;;1.50;0.50;;;12.30;99.90;;;;;;5051524;28;20033;-65
2022/09/27 07:51:51;;;;;;;2.67;0.65;;;12.30;99.90;;;;;;5051316;28;20052;-64
2022/09/27 07:54:17;;;;;;;4.20;0.73;;;12.30;99.90;;;;;;5054946;28;20446;-65
2022/09/27 07:56:44;;;;;;;2.13;0.60;;;12.20;99.90;;;;;;5055557;28;20370;-66
2022/09/27 07:59:10;;;;;;;2.33;0.52;;;12.10;99.90;;;;;;5054292;28;20135;-65
2022/09/27 08:01:35;;;;;;;3.17;0.85;;;12.00;99.90;;;;;;5037725;28;20124;-64
2022/09/27 08:04:01;;;;;;;3.30;0.75;;;11.80;99.90;;;;;;5055623;28;20679;-65
2022/09/27 08:06:28;;;;;;;4.40;0.70;;;11.80;99.90;;;;;;5054127;28;20647;-65
2022/09/27 08:08:53;;;;;;;4.22;1.10;;;11.70;99.90;;;;;;5055071;28;20466;-64
2022/09/27 08:11:20;;;;;;;3.55;0.57;;;11.70;99.90;;;;;;5053873;28;20063;-65
2022/09/27 08:13:48;;;;;;;2.13;0.68;;;11.60;99.90;;;;;;5054132;28;20056;-64
2022/09/27 08:16:14;;;;;;;2.72;0.63;;;11.70;99.90;;;;;;5055115;28;20335;-64
2022/09/27 08:18:40;;;;;;;2.42;0.90;;;11.60;99.90;;;;;;5055613;28;20044;-65
2022/09/27 08:21:05;;;;;;;3.08;0.75;;;11.50;99.90;;;;;;5055045;28;20444;-64
2022/09/27 08:23:31;;;;;;;2.22;0.73;;;11.50;99.90;;;;;;5053749;28;20080;-64
2022/09/27 08:25:58;;;;;;;1.90;0.65;;;11.50;99.90;;;;;;5055014;28;20424;-63
2022/09/27 08:28:25;;;;;;;3.90;1.00;;;11.50;99.90;;;;;;5054787;28;20454;-64
2022/09/27 08:30:50;;;;;;;1.20;0.50;;;11.60;99.90;;;;;;5054467;28;20397;-64
2022/09/27 08:33:16;;;;;;;2.97;1.23;;;11.60;99.90;;;;;;5055124;28;20076;-64
2022/09/27 08:35:42;;;;;;;3.83;1.60;;;11.70;99.90;;;;;;5053612;28;20041;-65
2022/09/27 08:38:09;;;;;;;5.43;1.90;;;11.80;99.90;;;;;;5054558;28;20139;-63
2022/09/27 08:40:34;;;;;;;4.88;1.20;;;11.80;99.90;;;;;;5054155;28;20458;-64
2022/09/27 08:43:22;;;;;;;3.05;1.30;;;11.80;99.90;;;;;;5037138;28;20049;-64
2022/09/27 08:46:08;;;;;;;8.32;2.58;;;11.80;99.90;;;;;;5054369;28;20045;-64
2022/09/27 08:48:37;;;;;;;11.20;3.30;;;11.90;99.90;;;;;;5054869;28;20079;-65
2022/09/27 08:51:05;;;;;;;9.65;3.10;;;12.10;99.90;;;;;;5054384;28;20032;-64
2022/09/27 08:53:42;;;;;;;5.90;1.60;;;12.20;99.90;;;;;;5054135;28;20114;-65
2022/09/27 08:56:09;;;;;;;4.93;0.77;;;12.20;99.90;;;;;;5054602;28;20062;-64
2022/09/27 08:58:43;;;;;;;15.65;4.53;;;12.00;99.90;;;;;;5054674;28;20060;-64
2022/09/27 09:01:15;;;;;;;10.55;2.50;;;12.00;99.90;;;;;;5054392;28;20033;-64
2022/09/27 09:03:55;;;;;;;9.25;3.08;;;11.90;99.90;;;;;;5054633;28;20112;-64
2022/09/27 09:06:28;;;;;;;9.23;2.25;;;11.80;99.90;;;;;;5052992;28;20036;-65
2022/09/27 09:09:31;;;;;;;10.25;2.95;;;11.80;99.90;;;;;;5054161;28;20051;-64
2022/09/27 09:15:05;;;;;;;6.50;2.25;;;11.60;99.90;;;;;;5054132;28;20053;-63
2022/09/27 09:17:44;;;;;;;8.55;2.53;;;11.60;99.90;;;;;;5052912;28;20136;-64
2022/09/27 09:20:12;;;;;;;4.13;1.45;;;11.60;99.90;;;;;;5053863;28;20088;-63
2022/09/27 09:22:47;;;;;;;1.55;0.60;;;11.60;99.90;;;;;;5054330;28;20276;-63
2022/09/27 09:25:44;;;;;;;2.20;0.40;;;11.60;99.90;;;;;;5054107;28;20051;-64
2022/09/27 09:28:29;;;;;;;2.13;0.40;;;11.60;99.90;;;;;;5043289;28;20453;-63
2022/09/27 09:31:17;;;;;;;1.58;0.73;;;11.60;99.90;;;;;;5037977;28;20076;-63
2022/09/27 09:33:55;;;;;;;2.17;0.73;;;11.50;99.90;;;;;;5053507;28;20433;-64
2022/09/27 09:36:31;;;;;;;2.58;0.75;;;11.60;99.90;;;;;;5052340;28;20140;-64
2022/09/27 09:39:23;;;;;;;3.47;0.60;;;11.60;99.90;;;;;;5053444;28;20515;-63
2022/09/27 09:42:03;;;;;;;2.10;0.70;;;11.70;99.90;;;;;;5053843;28;20142;-64
2022/09/27 09:44:44;;;;;;;3.63;1.00;;;11.70;99.90;;;;;;5053613;28;20058;-63
2022/09/27 09:47:51;;;;;;;5.60;1.70;;;11.70;99.90;;;;;;5053730;28;20044;-63
2022/09/27 09:50:21;;;;;;;5.15;1.73;;;11.70;99.90;;;;;;5045869;28;20081;-63
2022/09/27 09:53:11;;;;;;;6.18;2.80;;;11.70;99.90;;;;;;5053089;28;20033;-64
2022/09/27 09:55:41;;;;;;;7.30;1.90;;;11.80;99.90;;;;;;5053467;28;20413;-64
2022/09/27 09:58:25;;;;;;;2.55;0.95;;;12.00;99.90;;;;;;5052285;28;20047;-64
2022/09/27 10:00:54;;;;;;;5.10;1.60;;;12.10;99.90;;;;;;5053042;28;20037;-63
2022/09/27 10:03:21;;;;;;;4.22;1.52;;;12.20;99.90;;;;;;5053001;28;20444;-63
2022/09/27 10:05:47;;;;;;;5.28;2.50;;;12.40;99.90;;;;;;5051820;28;20465;-63
2022/09/27 10:08:21;;;;;;;7.22;2.20;;;12.50;99.90;;;;;;5052923;28;20094;-65
2022/09/27 10:10:47;;;;;;;4.65;1.70;;;12.50;99.90;;;;;;5052475;28;20470;-63
2022/09/27 10:13:18;;;;;;;6.22;1.30;;;12.70;99.90;;;;;;5052901;28;20075;-63
2022/09/27 10:16:12;;;;;;;4.63;1.00;;;12.70;99.90;;;;;;5052396;28;20041;-64
2022/09/27 10:18:40;;;;;;;6.77;2.03;;;12.80;99.90;;;;;;5039459;28;20048;-64
2022/09/27 10:21:21;;;;;;;17.70;4.68;;;12.70;99.90;;;;;;5051674;28;20661;-65
2022/09/27 10:24:09;;;;;;;18.52;5.00;;;12.70;99.90;;;;;;5040009;28;20049;-64
2022/09/27 10:26:36;;;;;;;9.27;3.33;;;12.50;99.90;;;;;;5052648;28;20045;-64
2022/09/27 10:29:15;;;;;;;2.30;0.50;;;12.20;99.90;;;;;;5052804;28;20037;-64
2022/09/27 10:31:46;;;;;;;1.67;0.50;;;11.80;99.90;;;;;;5052604;28;20029;-63
2022/09/27 10:34:29;;;;;;;1.80;0.70;;;11.40;99.90;;;;;;5052581;28;20171;-64
2022/09/27 10:37:16;;;;;;;3.00;0.40;;;11.00;99.90;;;;;;5052171;28;20053;-63
2022/09/27 10:39:46;;;;;;;1.13;0.57;;;10.80;99.90;;;;;;5040139;28;20041;-63
2022/09/27 10:42:36;;;;;;;1.13;0.40;;;10.70;99.90;;;;;;5052496;28;20124;-63
2022/09/27 10:45:28;;;;;;;1.23;0.47;;;10.70;99.90;;;;;;5052579;28;20056;-64
2022/09/27 10:47:55;;;;;;;1.85;0.75;;;10.80;99.90;;;;;;5052184;28;20052;-64
2022/09/27 10:50:26;;;;;;;0.60;0.20;;;10.80;99.90;;;;;;5052127;28;20052;-64
2022/09/27 10:53:11;;;;;;;1.25;0.30;;;10.90;99.90;;;;;;5052213;28;20147;-64
2022/09/27 10:55:39;;;;;;;1.33;0.45;;;11.00;99.90;;;;;;5052254;28;20033;-65
2022/09/27 10:58:05;;;;;;;1.88;0.50;;;11.00;99.90;;;;;;5052213;28;20079;-64
2022/09/27 11:00:35;;;;;;;1.05;0.30;;;11.10;99.90;;;;;;5051607;28;20524;-64
2022/09/27 11:03:24;;;;;;;1.33;0.40;;;11.10;99.90;;;;;;5052243;28;20116;-63
2022/09/27 11:05:53;;;;;;;2.05;0.65;;;11.20;99.90;;;;;;5051040;28;20048;-64
2022/09/27 11:08:22;;;;;;;1.98;0.40;;;11.30;99.90;;;;;;5051854;28;20068;-63
2022/09/27 11:11:19;;;;;;;1.60;0.50;;;11.30;99.90;;;;;;5051103;28;20055;-64
2022/09/27 11:14:21;;;;;;;1.45;0.47;;;11.40;99.90;;;;;;5047184;28;20059;-64
2022/09/27 11:17:15;;;;;;;3.15;0.45;;;11.50;99.90;;;;;;5048098;28;20049;-64
2022/09/27 11:19:47;;;;;;;1.23;0.50;;;11.60;99.90;;;;;;5051699;28;20048;-64
2022/09/27 11:22:40;;;;;;;5.32;1.38;;;11.70;99.90;;;;;;5051869;28;20024;-64
2022/09/27 11:25:47;;;;;;;6.20;1.80;;;11.70;99.90;;;;;;5051943;28;20041;-63
2022/09/27 11:28:32;;;;;;;4.15;1.10;;;11.90;99.90;;;;;;5061951;28;20045;-64
2022/09/27 11:31:19;;;;;;;6.35;2.22;;;12.00;99.90;;;;;;5037831;28;20032;-65
2022/09/27 11:33:53;;;;;;;6.75;1.55;;;12.00;99.90;;;;;;5051688;28;20077;-64
2022/09/27 11:36:18;;;;;;;4.50;1.58;;;12.10;99.90;;;;;;5050431;28;20091;-64
2022/09/27 11:38:55;;;;;;;5.03;1.75;;;12.20;99.90;;;;;;5051098;28;20052;-63
2022/09/27 11:41:54;;;;;;;4.22;1.33;;;12.30;99.90;;;;;;5051465;28;20412;-64
2022/09/27 11:44:34;;;;;;;13.90;2.08;;;12.30;99.90;;;;;;5034223;28;20048;-65
2022/09/27 11:47:45;;;;;;;6.32;1.40;;;12.40;99.90;;;;;;5050956;28;20640;-65
2022/09/27 11:50:42;;;;;;;10.77;3.20;;;12.40;99.90;;;;;;5041839;28;20060;-65
2022/09/27 11:53:36;;;;;;;5.05;1.20;;;12.50;99.90;;;;;;5034000;28;20091;-64
2022/09/27 11:56:35;;;;;;;3.40;0.70;;;12.60;99.90;;;;;;5051322;28;20040;-65
2022/09/27 11:59:11;;;;;;;4.47;1.35;;;12.60;99.90;;;;;;5051518;28;20049;-64
2022/09/27 12:02:17;;;;;;;4.63;1.10;;;12.70;99.90;;;;;;5051561;28;20040;-64
2022/09/27 12:05:11;;;;;;;4.50;1.23;;;12.80;99.90;;;;;;5051060;28;20041;-64
2022/09/27 12:08:04;;;;;;;5.43;1.63;;;12.90;99.90;;;;;;5051054;28;20142;-65
2022/09/27 12:10:30;;;;;;;4.07;1.13;;;12.90;99.90;;;;;;5040872;28;20040;-64
2022/09/27 12:12:58;;;;;;;5.80;1.80;;;12.90;99.90;;;;;;5051197;28;20040;-64
2022/09/27 12:15:32;;;;;;;5.45;1.60;;;12.90;99.90;;;;;;5051446;28;20029;-65
2022/09/27 12:18:15;;;;;;;4.22;1.15;;;13.00;99.90;;;;;;5049946;28;20454;-65
2022/09/27 12:20:42;;;;;;;2.88;0.93;;;13.10;99.90;;;;;;5051192;28;20052;-65
2022/09/27 12:23:20;;;;;;;3.80;0.80;;;13.10;99.90;;;;;;5051179;28;20171;-65
2022/09/27 12:25:52;;;;;;;2.92;0.90;;;13.10;99.90;;;;;;5051310;28;20175;-65
2022/09/27 12:28:38;;;;;;;2.65;0.80;;;13.10;99.90;;;;;;5050058;28;20056;-65
2022/09/27 12:31:36;;;;;;;6.82;1.85;;;12.90;99.90;;;;;;5037714;28;20025;-64
2022/09/27 12:34:10;;;;;;;5.68;1.77;;;12.50;99.90;;;;;;5041703;28;20053;-64
2022/09/27 12:36:43;;;;;;;4.15;1.42;;;12.40;99.90;;;;;;5050825;28;20399;-65
2022/09/27 12:39:36;;;;;;;3.40;1.15;;;12.20;99.90;;;;;;5052546;28;20049;-64
2022/09/27 12:42:18;;;;;;;5.22;1.00;;;11.90;99.90;;;;;;5055150;28;20040;-65
2022/09/27 12:44:43;;;;;;;2.78;0.80;;;11.70;99.90;;;;;;5041549;28;20123;-64
2022/09/27 12:47:18;;;;;;;6.85;1.40;;;11.70;99.90;;;;;;5054836;28;20048;-64
2022/09/27 12:49:56;;;;;;;;;;;11.70;99.90;;;;;;5040558;28;20056;-64
2022/09/27 12:52:27;;;;;;;4.80;1.83;;;11.70;99.90;;;;;;5054586;28;19916;-64
2022/09/27 12:55:26;;;;;;;6.05;1.63;;;11.90;99.90;;;;;;5054689;28;20120;-63
2022/09/27 12:58:34;;;;;;;4.55;1.60;;;11.90;99.90;;;;;;5053051;28;20087;-64
2022/09/27 13:01:13;;;;;;;4.85;1.95;;;12.00;99.90;;;;;;5054215;28;20060;-65
2022/09/27 13:04:13;;;;;;;9.05;2.60;;;12.00;99.90;;;;;;5054919;28;20037;-64
2022/09/27 13:06:54;;;;;;;5.30;1.58;;;11.90;99.90;;;;;;5054689;28;20044;-64
2022/09/27 13:09:41;;;;;;;4.30;1.20;;;11.90;99.90;;;;;;5054003;28;20120;-64
2022/09/27 13:12:11;;;;;;;2.15;0.82;;;11.80;99.90;;;;;;5043628;28;20041;-64
2022/09/27 13:14:49;;;;;;;2.33;0.60;;;11.90;99.90;;;;;;5054362;28;20081;-65
2022/09/27 13:17:46;;;;;;;3.88;1.10;;;11.70;99.90;;;;;;5052807;28;20144;-65
2022/09/27 13:20:30;;;;;;;1.85;0.80;;;11.60;99.90;;;;;;5053714;28;20032;-73
2022/09/27 13:23:02;;;;;;;2.75;1.00;;;11.40;99.90;;;;;;5054186;28;20055;-64
2022/09/27 13:25:53;;;;;;;1.33;0.70;;;11.40;99.90;;;;;;5041037;28;20377;-73
2022/09/27 13:28:51;;;;;;;1.98;0.82;;;11.30;99.90;;;;;;5050419;28;20040;-64
2022/09/27 13:31:56;;;;;;;3.13;0.90;;;11.30;99.90;;;;;;5051767;28;20040;-64